Alsville, South Dakota
Current Conditions -  °F | °C
As of 5:26 AM on Wednesday 26 Nov 2014 (Local Time) from KATY Reporting Station
Light Snow Light Snow  
Wind Chill:   Ceiling: 2900
Heat Index: 19°   Visibility: 2.5mi
Dew Point: 15°   Wind: 25mph
Humidity: 85%   Direction: 20°NNE
Pressure: 30.04"   Gusts: 29mph
Location:  44.5892°N, 97.2322°W
Report Text: KATY 261126Z AUTO 02022G25KT 2 1/2SM -SN BR FEW011 OVC029 M07/M09 A3004 RMK AO2 PK WND 01026/1057 SNB02 P0000 T10721094
Loading
Personal Weather Stations






























Interactive Weather Map New forecast layout! Learn more

10-Day Weather Forecast

Advertisements
Track Severe Weather on mobile